Time,TemperatureF,DewpointF,PressureIn,WindDirection,WindDirectionDegrees,WindSpeedMPH,WindSpeedGustMPH,Humidity,HourlyPrecipIn,Conditions,Clouds,dailyrainin,SoftwareType,DateUTC
2013-08-13 00:14:00,64.8,58.1,29.76,East,90,3.2,-999.0,79,-99.99,,,0.00,Acu-Link.com,2013-08-13 07:14:00,
2013-08-13 00:29:00,64.2,57.9,29.76,ESE,112,2.7,-999.0,80,-99.99,,,0.00,Acu-Link.com,2013-08-13 07:29:00,
2013-08-13 00:44:00,63.9,57.6,29.76,East,90,2.7,-999.0,80,-99.99,,,0.00,Acu-Link.com,2013-08-13 07:44:00,
2013-08-13 00:59:00,63.7,57.8,29.76,NE,45,2.2,-999.0,81,-99.99,,,0.00,Acu-Link.com,2013-08-13 07:59:00,
2013-08-13 01:14:00,63.7,57.8,29.77,NNE,22,0.0,-999.0,81,-99.99,,,0.00,Acu-Link.com,2013-08-13 08:14:00,
2013-08-13 01:30:00,63.5,57.6,29.76,NNW,337,4.7,-999.0,81,-99.99,,,0.00,Acu-Link.com,2013-08-13 08:30:00,
2013-08-13 01:45:00,63.3,57.4,29.77,East,90,2.7,-999.0,81,-99.99,,,0.00,Acu-Link.com,2013-08-13 08:45:00,
2013-08-13 02:00:00,63.1,57.8,29.77,NE,45,2.7,-999.0,83,-99.99,,,0.00,Acu-Link.com,2013-08-13 09:00:00,
2013-08-13 02:15:00,63.1,58.2,29.77,NNE,22,2.7,-999.0,84,-99.99,,,0.00,Acu-Link.com,2013-08-13 09:15:00,
2013-08-13 02:30:00,63.0,57.8,29.78,ENE,67,0.0,-999.0,83,-99.99,,,0.00,Acu-Link.com,2013-08-13 09:30:00,
2013-08-13 02:45:00,62.2,58.0,29.77,ENE,67,1.1,-999.0,86,-99.99,,,0.00,Acu-Link.com,2013-08-13 09:45:00,
2013-08-13 03:01:00,62.1,58.2,29.78,NE,45,0.0,-999.0,87,-99.99,,,0.00,Acu-Link.com,2013-08-13 10:01:00,
2013-08-13 03:16:00,61.7,58.1,29.78,ENE,67,3.7,-999.0,88,-99.99,,,0.00,Acu-Link.com,2013-08-13 10:16:00,
2013-08-13 03:31:00,61.3,57.7,29.78,East,90,1.7,-999.0,88,-99.99,,,0.00,Acu-Link.com,2013-08-13 10:31:00,
2013-08-13 03:46:00,61.2,57.9,29.78,East,90,1.7,-999.0,89,-99.99,,,0.00,Acu-Link.com,2013-08-13 10:46:00,
2013-08-13 04:01:00,61.3,58.3,29.79,ENE,67,0.0,-999.0,90,-99.99,,,0.00,Acu-Link.com,2013-08-13 11:01:00,
2013-08-13 04:16:00,61.0,57.7,29.79,SSE,157,0.0,-999.0,89,-99.99,,,0.00,Acu-Link.com,2013-08-13 11:16:00,
2013-08-13 04:31:00,60.6,57.6,29.78,ESE,112,0.0,-999.0,90,-99.99,,,0.00,Acu-Link.com,2013-08-13 11:31:00,
2013-08-13 04:46:00,60.4,58.4,29.78,East,90,0.0,-999.0,93,-99.99,,,0.00,Acu-Link.com,2013-08-13 11:46:00,
2013-08-13 05:01:00,60.4,58.1,29.78,West,270,2.2,-999.0,92,-99.99,,,0.00,Acu-Link.com,2013-08-13 12:01:00,
2013-08-13 05:16:00,60.6,57.6,29.79,ESE,112,0.0,-999.0,90,-99.99,,,0.00,Acu-Link.com,2013-08-13 12:16:00,
2013-08-13 05:32:00,60.4,57.1,29.79,East,90,0.0,-999.0,89,-99.99,,,0.00,Acu-Link.com,2013-08-13 12:32:00,
2013-08-13 05:47:00,60.6,58.0,29.79,ESE,112,0.0,-999.0,91,-99.99,,,0.00,Acu-Link.com,2013-08-13 12:47:00,
2013-08-13 06:02:00,60.8,57.5,29.79,SSW,202,2.7,-999.0,89,-99.99,,,0.00,Acu-Link.com,2013-08-13 13:02:00,
2013-08-13 06:17:00,60.8,57.5,29.79,SW,225,0.0,-999.0,89,-99.99,,,0.00,Acu-Link.com,2013-08-13 13:17:00,
2013-08-13 06:32:00,60.8,57.2,29.79,SW,225,1.7,-999.0,88,-99.99,,,0.00,Acu-Link.com,2013-08-13 13:32:00,
2013-08-13 06:47:00,60.8,57.2,29.80,West,270,2.2,-999.0,88,-99.99,,,0.00,Acu-Link.com,2013-08-13 13:47:00,
2013-08-13 07:02:00,61.2,57.9,29.80,West,270,0.0,-999.0,89,-99.99,,,0.00,Acu-Link.com,2013-08-13 14:02:00,
2013-08-13 07:17:00,61.2,57.6,29.81,SSW,202,2.2,-999.0,88,-99.99,,,0.00,Acu-Link.com,2013-08-13 14:17:00,
2013-08-13 07:32:00,61.9,58.0,29.79,SSW,202,3.2,-999.0,87,-99.99,,,0.00,Acu-Link.com,2013-08-13 14:32:00,
2013-08-13 07:48:00,63.1,58.2,29.80,SW,225,2.2,-999.0,84,-99.99,,,0.00,Acu-Link.com,2013-08-13 14:48:00,
2013-08-13 08:03:00,64.9,58.6,29.80,South,180,0.0,-999.0,80,-99.99,,,0.00,Acu-Link.com,2013-08-13 15:03:00,
2013-08-13 08:18:00,64.8,58.5,29.80,SW,225,0.0,-999.0,80,-99.99,,,0.00,Acu-Link.com,2013-08-13 15:18:00,
2013-08-13 08:33:00,65.7,58.6,29.79,ESE,112,1.1,-999.0,78,-99.99,,,0.00,Acu-Link.com,2013-08-13 15:33:00,
2013-08-13 08:48:00,65.1,58.1,29.79,ESE,112,0.0,-999.0,78,-99.99,,,0.00,Acu-Link.com,2013-08-13 15:48:00,
2013-08-13 09:03:00,66.6,58.4,29.79,SW,225,2.2,-999.0,75,-99.99,,,0.00,Acu-Link.com,2013-08-13 16:03:00,
2013-08-13 09:18:00,65.7,57.6,29.80,SW,225,3.7,-999.0,75,-99.99,,,0.00,Acu-Link.com,2013-08-13 16:18:00,
2013-08-13 09:33:00,67.5,58.1,29.79,SE,135,3.2,-999.0,72,-99.99,,,0.00,Acu-Link.com,2013-08-13 16:33:00,
2013-08-13 09:48:00,66.6,58.0,29.79,South,180,2.7,-999.0,74,-99.99,,,0.00,Acu-Link.com,2013-08-13 16:48:00,
2013-08-13 10:04:00,67.6,57.9,29.79,SE,135,1.7,-999.0,71,-99.99,,,0.00,Acu-Link.com,2013-08-13 17:04:00,
2013-08-13 10:19:00,67.5,58.1,29.78,SW,225,2.7,-999.0,72,-99.99,,,0.00,Acu-Link.com,2013-08-13 17:19:00,
2013-08-13 10:34:00,68.0,58.2,29.78,SSW,202,4.2,-999.0,71,-99.99,,,0.00,Acu-Link.com,2013-08-13 17:34:00,
2013-08-13 10:49:00,69.1,58.5,29.79,SSE,157,1.1,-999.0,69,-99.99,,,0.00,Acu-Link.com,2013-08-13 17:49:00,
2013-08-13 11:04:00,68.7,58.1,29.79,SSE,157,4.2,-999.0,69,-99.99,,,0.00,Acu-Link.com,2013-08-13 18:04:00,
2013-08-13 11:19:00,69.6,58.1,29.78,South,180,2.2,-999.0,67,-99.99,,,0.00,Acu-Link.com,2013-08-13 18:19:00,
2013-08-13 11:34:00,68.5,57.1,29.78,WSW,247,3.2,-999.0,67,-99.99,,,0.00,Acu-Link.com,2013-08-13 18:34:00,
2013-08-13 11:49:00,71.1,57.4,29.78,WSW,247,1.7,-999.0,62,-99.99,,,0.00,Acu-Link.com,2013-08-13 18:49:00,
2013-08-13 12:04:00,71.6,57.0,29.76,SSE,157,3.7,-999.0,60,-99.99,,,0.00,Acu-Link.com,2013-08-13 19:04:00,
2013-08-13 12:20:00,71.6,57.0,29.77,SW,225,5.3,-999.0,60,-99.99,,,0.00,Acu-Link.com,2013-08-13 19:20:00,
2013-08-13 12:35:00,71.8,56.7,29.77,South,180,4.7,-999.0,59,-99.99,,,0.00,Acu-Link.com,2013-08-13 19:35:00,
2013-08-13 12:50:00,74.3,57.6,29.76,ESE,112,2.7,-999.0,56,-99.99,,,0.00,Acu-Link.com,2013-08-13 19:50:00,
2013-08-13 13:05:00,75.0,57.7,29.76,South,180,4.7,-999.0,55,-99.99,,,0.00,Acu-Link.com,2013-08-13 20:05:00,
2013-08-13 13:20:00,73.8,58.1,29.74,South,180,1.7,-999.0,58,-99.99,,,0.00,Acu-Link.com,2013-08-13 20:20:00,
2013-08-13 13:35:00,75.0,58.7,29.74,SE,135,1.7,-999.0,57,-99.99,,,0.00,Acu-Link.com,2013-08-13 20:35:00,
2013-08-13 13:50:00,77.2,59.2,29.74,ENE,67,3.7,-999.0,54,-99.99,,,0.00,Acu-Link.com,2013-08-13 20:50:00,
2013-08-13 14:06:00,75.6,58.3,29.73,SW,225,2.2,-999.0,55,-99.99,,,0.00,Acu-Link.com,2013-08-13 21:06:00,
2013-08-13 14:21:00,76.3,58.4,29.72,South,180,1.1,-999.0,54,-99.99,,,0.00,Acu-Link.com,2013-08-13 21:21:00,
2013-08-13 14:36:00,76.1,58.7,29.73,SW,225,3.2,-999.0,55,-99.99,,,0.00,Acu-Link.com,2013-08-13 21:36:00,
2013-08-13 14:51:00,78.8,59.1,29.71,South,180,1.7,-999.0,51,-99.99,,,0.00,Acu-Link.com,2013-08-13 21:51:00,
2013-08-13 15:06:00,75.6,58.3,29.70,SW,225,2.2,-999.0,55,-99.99,,,0.00,Acu-Link.com,2013-08-13 22:06:00,
2013-08-13 15:21:00,76.3,58.9,29.70,WSW,247,4.2,-999.0,55,-99.99,,,0.00,Acu-Link.com,2013-08-13 22:21:00,
2013-08-13 15:37:00,77.7,58.1,29.69,ESE,112,1.7,-999.0,51,-99.99,,,0.00,Acu-Link.com,2013-08-13 22:37:00,
2013-08-13 15:52:00,79.9,58.4,29.68,South,180,2.2,-999.0,48,-99.99,,,0.00,Acu-Link.com,2013-08-13 22:52:00,
2013-08-13 16:07:00,80.4,57.1,29.68,South,180,0.0,-999.0,45,-99.99,,,0.00,Acu-Link.com,2013-08-13 23:07:00,
2013-08-13 16:22:00,80.8,58.7,29.67,South,180,4.2,-999.0,47,-99.99,,,0.00,Acu-Link.com,2013-08-13 23:22:00,
2013-08-13 16:37:00,79.0,58.2,29.66,SW,225,2.2,-999.0,49,-99.99,,,0.00,Acu-Link.com,2013-08-13 23:37:00,
2013-08-13 16:52:00,79.5,58.6,29.66,SSW,202,4.2,-999.0,49,-99.99,,,0.00,Acu-Link.com,2013-08-13 23:52:00,
2013-08-13 17:07:00,79.7,58.3,29.67,SSE,157,3.7,-999.0,48,-99.99,,,0.00,Acu-Link.com,2013-08-14 00:07:00,
2013-08-13 17:22:00,80.1,59.8,29.65,West,270,2.7,-999.0,50,-99.99,,,0.00,Acu-Link.com,2013-08-14 00:22:00,
2013-08-13 17:37:00,79.5,59.2,29.65,South,180,3.7,-999.0,50,-99.99,,,0.00,Acu-Link.com,2013-08-14 00:37:00,
2013-08-13 17:53:00,79.7,61.0,29.64,WSW,247,4.7,-999.0,53,-99.99,,,0.00,Acu-Link.com,2013-08-14 00:53:00,
2013-08-13 18:08:00,78.8,60.7,29.64,West,270,5.3,-999.0,54,-99.99,,,0.00,Acu-Link.com,2013-08-14 01:08:00,
2013-08-13 18:23:00,77.4,60.5,29.65,WSW,247,3.7,-999.0,56,-99.99,,,0.00,Acu-Link.com,2013-08-14 01:23:00,
2013-08-13 18:38:00,75.4,61.0,29.64,WSW,247,3.7,-999.0,61,-99.99,,,0.00,Acu-Link.com,2013-08-14 01:38:00,
2013-08-13 18:53:00,75.4,59.6,29.64,West,270,4.2,-999.0,58,-99.99,,,0.00,Acu-Link.com,2013-08-14 01:53:00,
2013-08-13 19:08:00,75.2,58.9,29.63,SW,225,3.2,-999.0,57,-99.99,,,0.00,Acu-Link.com,2013-08-14 02:08:00,
2013-08-13 19:23:00,75.2,59.4,29.63,WSW,247,3.7,-999.0,58,-99.99,,,0.00,Acu-Link.com,2013-08-14 02:23:00,
2013-08-13 19:38:00,75.0,59.7,29.63,West,270,0.0,-999.0,59,-99.99,,,0.00,Acu-Link.com,2013-08-14 02:38:00,
2013-08-13 19:53:00,73.2,58.9,29.62,WNW,292,2.7,-999.0,61,-99.99,,,0.00,Acu-Link.com,2013-08-14 02:53:00,
2013-08-13 20:09:00,71.6,58.8,29.63,WNW,292,2.7,-999.0,64,-99.99,,,0.00,Acu-Link.com,2013-08-14 03:09:00,
2013-08-13 20:25:00,70.7,58.8,29.63,SSW,202,2.7,-999.0,66,-99.99,,,0.00,Acu-Link.com,2013-08-14 03:25:00,
2013-08-13 20:49:00,69.3,58.3,29.62,WSW,247,1.1,-999.0,68,-99.99,,,0.00,Acu-Link.com,2013-08-14 03:49:00,
2013-08-13 21:22:00,69.3,58.3,29.63,WSW,247,3.2,-999.0,68,-99.99,,,0.00,Acu-Link.com,2013-08-14 04:22:00,
2013-08-13 22:11:00,66.9,56.8,29.61,North,0,4.2,-999.0,70,-99.99,,,0.00,Acu-Link.com,2013-08-14 05:11:00,
2013-08-13 22:26:00,66.9,56.8,29.61,SSW,202,0.0,-999.0,70,-99.99,,,0.00,Acu-Link.com,2013-08-14 05:26:00,
2013-08-13 22:41:00,66.2,57.3,29.62,West,270,1.1,-999.0,73,-99.99,,,0.00,Acu-Link.com,2013-08-14 05:41:00,
2013-08-13 22:57:00,65.7,58.3,29.62,WNW,292,2.7,-999.0,77,-99.99,,,0.00,Acu-Link.com,2013-08-14 05:57:00,
2013-08-13 23:12:00,65.1,57.3,29.62,SSE,157,0.0,-999.0,76,-99.99,,,0.00,Acu-Link.com,2013-08-14 06:12:00,
2013-08-13 23:27:00,64.6,56.9,29.61,South,180,1.7,-999.0,76,-99.99,,,0.00,Acu-Link.com,2013-08-14 06:27:00,
2013-08-13 23:42:00,64.4,57.0,29.62,West,270,1.7,-999.0,77,-99.99,,,0.00,Acu-Link.com,2013-08-14 06:42:00,
2013-08-13 23:57:00,63.7,57.8,29.63,South,180,1.1,-999.0,81,-99.99,,,0.00,Acu-Link.com,2013-08-14 06:57:00,